ETNT Airport Information

Runway Information
Runway 08 Length 8005 ft width 98 ft
Elevation 23 ft Threshold 0 ft Heading 78
Runway 26 Length 8005 ft Width 98 ft
Elevation 19 ft Threshold 0 ft Heading 258
Airport Frequencies
Type ACC Name BREMEN CON Frequency 124.075 MHZ
Type RDR Name WITTMUND R Frequency 25.87 MHZ
Type RDR Name WITTMUND R Frequency 36.89 MHZ
Type RDR Name WITTMUND R Frequency 123.3 MHZ
Type TWR Name WITTMUND T Frequency 118.725 MHZ
Airport Navaids
Airport Weather Information & NOTAM
ADDS - METARS form results

(0151 UTC 19 January 2018)
 
METAR text: ETNT 190120Z 25005KT 9999 FEW015 SCT030 01/M00 Q1000 BLU+
Conditions at: ETNT (WITTMUNDHAVEN(GA, DE) observed 0120 UTC 19 January 2018
Temperature: 1.0°C (34°F)
Dewpoint: 0.0°C (32°F) [RH = 93%]
Pressure (altimeter): 29.53 inches Hg (1000.0 mb)
Winds: from the WSW (250 degrees) at 6 MPH (5 knots; 2.6 m/s)
Visibility: 6 or more miles (10+ km)
Ceiling: at least 12,000 feet AGL
Clouds: few clouds at 1500 feet AGL
scattered clouds at 3000 feet AGL
Weather: no significant weather observed at this time